Time;durP1;ratioP1;P1;durP2;ratioP2;P2;SDS_P1;SDS_P2;PMS_P1;PMS_P2;Temp;Humidity;BMP_temperature;BMP_pressure;BME280_temperature;BME280_humidity;BME280_pressure;Samples;Min_cycle;Max_cycle;Signal;HPM_P1;HPM_P2
2022/01/06 00:00:14;;;;;;;7.78;4.70;;;;;;;;;;5005601;28;20250;-69
2022/01/06 00:03:00;;;;;;;7.63;3.85;;;;;;;;;;5038511;28;20514;-68
2022/01/06 00:05:26;;;;;;;7.22;3.17;;;;;;;;;;5040896;28;20049;-68
2022/01/06 00:07:53;;;;;;;5.43;3.00;;;;;;;;;;5021672;28;20407;-69
2022/01/06 00:10:20;;;;;;;4.03;2.47;;;;;;;;;;5040331;28;20044;-69
2022/01/06 00:13:05;;;;;;;3.97;2.28;;;;;;;;;;5022220;28;20621;-69
2022/01/06 00:25:57;;;;;;;2.92;2.00;;;;;;;;;;5042498;28;20064;-73
2022/01/06 00:28:24;;;;;;;2.60;1.63;;;;;;;;;;5023425;28;20082;-69
2022/01/06 00:30:51;;;;;;;3.15;1.75;;;;;;;;;;5022159;28;20052;-69
2022/01/06 00:33:18;;;;;;;3.28;1.60;;;;;;;;;;5041276;28;20179;-70
2022/01/06 00:35:44;;;;;;;3.30;1.80;;;;;;;;;;5021712;28;20076;-70
2022/01/06 00:38:11;;;;;;;1.80;1.20;;;;;;;;;;5021683;28;20490;-69
2022/01/06 00:40:37;;;;;;;4.80;1.38;;;;;;;;;;5040203;28;20156;-69
2022/01/06 00:43:06;;;;;;;4.18;1.40;;;;;;;;;;5022948;28;20413;-68
2022/01/06 00:45:36;;;;;;;2.17;1.30;;;;;;;;;;5039428;28;20413;-66
2022/01/06 00:48:07;;;;;;;1.48;1.05;;;;;;;;;;5039439;28;20371;-72
2022/01/06 00:50:34;;;;;;;2.22;1.00;;;;;;;;;;5022698;28;20087;-68
2022/01/06 00:53:03;;;;;;;1.67;1.05;;;;;;;;;;5039570;28;20049;-69
2022/01/06 00:55:37;;;;;;;1.45;0.90;;;;;;;;;;5004306;28;20448;-71
2022/01/06 00:58:04;;;;;;;1.67;1.00;;;;;;;;;;5038700;28;20165;-70
2022/01/06 01:00:39;;;;;;;1.52;0.70;;;;;;;;;;5021202;28;20049;-71
2022/01/06 01:03:10;;;;;;;0.52;0.52;;;;;;;;;;5038615;28;20057;-69
2022/01/06 01:05:42;;;;;;;0.65;0.65;;;;;;;;;;5044187;28;20052;-71
2022/01/06 01:08:09;;;;;;;0.55;0.50;;;;;;;;;;5041114;28;20060;-69
2022/01/06 01:10:37;;;;;;;2.55;0.70;;;;;;;;;;5020673;28;20304;-70
2022/01/06 01:13:04;;;;;;;1.27;0.70;;;;;;;;;;5039524;28;20053;-70
2022/01/06 01:15:32;;;;;;;1.08;0.68;;;;;;;;;;5018518;28;20045;-68
2022/01/06 01:18:05;;;;;;;0.88;0.70;;;;;;;;;;5037994;28;20049;-69
2022/01/06 01:20:33;;;;;;;1.42;0.60;;;;;;;;;;5038444;28;20061;-68
2022/01/06 01:23:00;;;;;;;0.68;0.60;;;;;;;;;;5039715;28;20116;-69
2022/01/06 01:25:26;;;;;;;1.42;0.50;;;;;;;;;;5023986;28;20060;-68
2022/01/06 01:27:55;;;;;;;0.75;0.50;;;;;;;;;;5042207;28;20073;-70
2022/01/06 01:30:29;;;;;;;0.60;0.60;;;;;;;;;;5039534;28;20045;-70
2022/01/06 01:32:56;;;;;;;0.40;0.40;;;;;;;;;;5042118;28;20131;-68
2022/01/06 01:35:23;;;;;;;0.70;0.50;;;;;;;;;;5023234;28;20057;-70
2022/01/06 01:37:51;;;;;;;1.33;0.60;;;;;;;;;;5041384;28;20060;-70
2022/01/06 01:40:17;;;;;;;0.60;0.60;;;;;;;;;;5040164;28;20048;-69
2022/01/06 01:42:43;;;;;;;0.60;0.60;;;;;;;;;;5024393;28;20073;-69
2022/01/06 01:45:09;;;;;;;2.20;0.70;;;;;;;;;;5008280;28;20220;-68
2022/01/06 01:50:16;;;;;;;0.73;0.65;;;;;;;;;;5023880;28;20106;-69
2022/01/06 01:52:46;;;;;;;0.43;0.43;;;;;;;;;;5042261;28;20056;-69
2022/01/06 01:55:20;;;;;;;0.47;0.47;;;;;;;;;;5025793;28;20080;-68
2022/01/06 01:57:46;;;;;;;0.95;0.70;;;;;;;;;;5009167;28;20084;-68
2022/01/06 02:00:14;;;;;;;0.47;0.43;;;;;;;;;;5026124;28;20254;-69
2022/01/06 02:02:42;;;;;;;1.83;0.50;;;;;;;;;;5022423;28;20061;-70
2022/01/06 02:05:09;;;;;;;0.85;0.52;;;;;;;;;;5007437;28;20059;-70
2022/01/06 02:07:40;;;;;;;0.98;0.77;;;;;;;;;;5022184;28;20103;-70
2022/01/06 02:10:10;;;;;;;0.93;0.65;;;;;;;;;;5023155;28;20061;-69
2022/01/06 02:12:38;;;;;;;0.65;0.55;;;;;;;;;;5019999;28;20061;-70
2022/01/06 02:15:06;;;;;;;1.55;0.60;;;;;;;;;;5042140;28;20057;-68
2022/01/06 02:17:33;;;;;;;0.85;0.65;;;;;;;;;;5042926;28;20087;-71
2022/01/06 02:20:01;;;;;;;1.17;0.60;;;;;;;;;;5042131;28;20533;-69
2022/01/06 02:22:28;;;;;;;0.93;0.70;;;;;;;;;;5041739;28;20123;-70
2022/01/06 02:24:54;;;;;;;2.33;1.38;;;;;;;;;;5023874;28;20045;-69
2022/01/06 02:27:21;;;;;;;1.70;0.80;;;;;;;;;;5040492;28;20045;-68
2022/01/06 02:29:48;;;;;;;2.80;0.88;;;;;;;;;;5041911;28;20478;-68
2022/01/06 02:32:16;;;;;;;2.45;0.80;;;;;;;;;;5042410;28;20251;-69
2022/01/06 02:34:47;;;;;;;1.67;0.82;;;;;;;;;;5043220;28;20049;-68
2022/01/06 02:37:14;;;;;;;1.02;0.60;;;;;;;;;;5024686;28;20077;-69
2022/01/06 02:39:41;;;;;;;2.08;0.70;;;;;;;;;;5042299;28;20049;-69
2022/01/06 02:42:08;;;;;;;1.70;0.70;;;;;;;;;;5043760;28;20642;-68
2022/01/06 02:44:37;;;;;;;0.65;0.57;;;;;;;;;;5045546;28;20068;-68
2022/01/06 02:47:08;;;;;;;2.10;0.68;;;;;;;;;;5027202;28;20127;-68
2022/01/06 02:49:34;;;;;;;1.15;0.75;;;;;;;;;;5025159;28;20510;-69
2022/01/06 02:52:01;;;;;;;1.35;0.73;;;;;;;;;;5045977;28;20442;-68
2022/01/06 02:54:27;;;;;;;0.70;0.70;;;;;;;;;;5027780;28;20112;-72
2022/01/06 02:56:54;;;;;;;0.85;0.60;;;;;;;;;;5045730;28;20068;-69
2022/01/06 02:59:20;;;;;;;1.88;0.80;;;;;;;;;;5044108;28;20048;-68
2022/01/06 03:01:47;;;;;;;2.45;0.70;;;;;;;;;;5043443;28;20243;-68
2022/01/06 03:04:13;;;;;;;0.70;0.60;;;;;;;;;;5024405;28;20064;-68
2022/01/06 03:06:40;;;;;;;1.15;0.60;;;;;;;;;;5040399;28;20056;-69
2022/01/06 03:09:07;;;;;;;1.08;0.60;;;;;;;;;;5040161;28;20056;-69
2022/01/06 03:11:40;;;;;;;0.80;0.63;;;;;;;;;;5023438;28;20079;-68
2022/01/06 03:14:07;;;;;;;0.60;0.60;;;;;;;;;;5041633;28;20067;-69
2022/01/06 03:16:34;;;;;;;0.98;0.70;;;;;;;;;;5024449;28;20285;-68
2022/01/06 03:19:00;;;;;;;0.50;0.50;;;;;;;;;;5024868;28;20252;-70
2022/01/06 03:21:27;;;;;;;0.50;0.50;;;;;;;;;;5023058;28;20099;-69
2022/01/06 03:23:54;;;;;;;1.42;0.60;;;;;;;;;;5042001;28;20129;-69
2022/01/06 03:26:20;;;;;;;1.08;0.60;;;;;;;;;;5042984;28;20052;-69
2022/01/06 03:28:46;;;;;;;1.27;0.90;;;;;;;;;;5005780;28;20049;-69
2022/01/06 03:31:13;;;;;;;1.15;0.70;;;;;;;;;;5040096;28;20502;-68
2022/01/06 03:33:40;;;;;;;2.83;0.70;;;;;;;;;;5021658;28;20518;-70
2022/01/06 03:36:06;;;;;;;1.17;0.80;;;;;;;;;;5040389;28;20134;-68
2022/01/06 03:38:33;;;;;;;1.38;0.80;;;;;;;;;;5038823;28;20127;-69
2022/01/06 03:41:00;;;;;;;1.05;0.60;;;;;;;;;;5039107;28;20119;-67
2022/01/06 03:43:26;;;;;;;2.97;0.70;;;;;;;;;;5041142;28;20045;-68
2022/01/06 03:45:52;;;;;;;1.65;0.80;;;;;;;;;;5041082;28;20052;-68
2022/01/06 03:48:18;;;;;;;1.88;0.85;;;;;;;;;;5037588;28;20441;-68
2022/01/06 03:50:45;;;;;;;1.23;0.80;;;;;;;;;;5039980;28;20172;-68
2022/01/06 03:53:11;;;;;;;1.83;0.73;;;;;;;;;;5039953;28;20081;-69
2022/01/06 03:55:39;;;;;;;4.63;0.73;;;;;;;;;;5020886;28;20057;-68
2022/01/06 03:58:05;;;;;;;1.23;0.75;;;;;;;;;;5038343;28;20059;-68
2022/01/06 04:00:32;;;;;;;0.82;0.65;;;;;;;;;;5022166;28;20131;-68
2022/01/06 04:02:58;;;;;;;1.25;0.80;;;;;;;;;;5020143;28;20092;-68
2022/01/06 04:05:24;;;;;;;0.95;0.68;;;;;;;;;;5022833;28;20132;-67
2022/01/06 04:07:50;;;;;;;0.75;0.52;;;;;;;;;;5039842;28;20389;-69
2022/01/06 04:10:16;;;;;;;1.17;0.60;;;;;;;;;;5040277;28;20525;-68
2022/01/06 04:12:42;;;;;;;1.20;0.70;;;;;;;;;;5022064;28;20109;-68
2022/01/06 04:15:13;;;;;;;0.60;0.60;;;;;;;;;;5005699;28;20048;-73
2022/01/06 04:17:41;;;;;;;0.68;0.60;;;;;;;;;;5037140;28;20143;-68
2022/01/06 04:20:08;;;;;;;2.00;0.90;;;;;;;;;;5038619;28;20063;-68
2022/01/06 04:22:36;;;;;;;0.52;0.50;;;;;;;;;;5039547;28;20500;-69
2022/01/06 04:25:04;;;;;;;0.95;0.80;;;;;;;;;;5022849;28;20063;-69
2022/01/06 04:27:30;;;;;;;1.40;0.80;;;;;;;;;;5005172;28;20107;-69
2022/01/06 04:29:56;;;;;;;1.17;0.80;;;;;;;;;;5020171;28;20176;-69
2022/01/06 04:32:22;;;;;;;1.08;0.80;;;;;;;;;;5022843;28;20052;-68
2022/01/06 04:34:48;;;;;;;0.70;0.55;;;;;;;;;;5042092;28;20145;-68
2022/01/06 04:37:15;;;;;;;0.95;0.70;;;;;;;;;;5039991;28;20490;-67
2022/01/06 04:39:42;;;;;;;1.92;0.90;;;;;;;;;;5037660;28;20099;-67
2022/01/06 04:42:10;;;;;;;1.08;0.70;;;;;;;;;;5039576;28;20992;-68
2022/01/06 04:44:39;;;;;;;2.80;0.70;;;;;;;;;;5041663;28;20114;-68
2022/01/06 04:47:05;;;;;;;1.55;0.80;;;;;;;;;;5041378;28;20482;-68
2022/01/06 04:49:31;;;;;;;1.92;0.68;;;;;;;;;;5036159;28;20055;-70
2022/01/06 04:51:58;;;;;;;1.83;0.90;;;;;;;;;;5023076;28;20041;-68
2022/01/06 04:54:27;;;;;;;0.93;0.65;;;;;;;;;;5039152;28;20044;-68
2022/01/06 04:56:53;;;;;;;1.35;0.70;;;;;;;;;;5024946;28;20064;-68
2022/01/06 04:59:19;;;;;;;1.50;0.82;;;;;;;;;;5022137;28;20084;-69
2022/01/06 05:01:45;;;;;;;2.08;0.85;;;;;;;;;;5024070;28;20064;-68
2022/01/06 05:04:12;;;;;;;1.60;0.88;;;;;;;;;;5024970;28;20048;-68
2022/01/06 05:06:38;;;;;;;1.73;0.60;;;;;;;;;;5039640;28;20068;-68
2022/01/06 05:09:04;;;;;;;0.50;0.50;;;;;;;;;;5042241;28;20049;-68
2022/01/06 05:11:31;;;;;;;1.27;0.60;;;;;;;;;;5042350;28;20337;-68
2022/01/06 05:13:57;;;;;;;1.13;0.82;;;;;;;;;;5008907;28;20053;-68
2022/01/06 05:16:23;;;;;;;1.42;0.90;;;;;;;;;;5042027;28;20044;-68
2022/01/06 05:18:50;;;;;;;1.77;0.70;;;;;;;;;;5025767;28;20052;-70
2022/01/06 05:21:16;;;;;;;1.15;0.80;;;;;;;;;;5027744;28;20057;-68
2022/01/06 05:23:43;;;;;;;3.70;1.00;;;;;;;;;;5042777;28;20091;-69
2022/01/06 05:26:09;;;;;;;1.55;0.77;;;;;;;;;;5041790;28;20080;-68
2022/01/06 05:28:37;;;;;;;1.40;0.70;;;;;;;;;;5026780;28;20534;-68
2022/01/06 05:31:03;;;;;;;1.30;0.77;;;;;;;;;;5045074;28;20041;-69
2022/01/06 05:33:31;;;;;;;2.45;0.70;;;;;;;;;;5043232;28;20063;-68
2022/01/06 05:35:57;;;;;;;0.55;0.55;;;;;;;;;;5024938;28;20508;-70
2022/01/06 05:38:23;;;;;;;1.13;0.75;;;;;;;;;;5008745;28;20159;-68
2022/01/06 05:40:49;;;;;;;0.98;0.60;;;;;;;;;;5042355;28;20045;-68
2022/01/06 05:43:15;;;;;;;1.35;0.60;;;;;;;;;;5043004;28;20521;-68
2022/01/06 05:45:42;;;;;;;2.05;0.70;;;;;;;;;;5042165;28;20057;-68
2022/01/06 05:48:08;;;;;;;3.72;0.88;;;;;;;;;;5041714;28;20057;-68
2022/01/06 05:50:34;;;;;;;1.00;0.70;;;;;;;;;;5024153;28;20373;-68
2022/01/06 05:53:00;;;;;;;2.35;0.90;;;;;;;;;;5025427;28;20662;-69
2022/01/06 05:55:26;;;;;;;1.27;0.90;;;;;;;;;;5043316;28;20140;-69
2022/01/06 05:57:52;;;;;;;0.93;0.80;;;;;;;;;;5043103;28;20049;-68
2022/01/06 06:00:19;;;;;;;1.30;0.80;;;;;;;;;;5043583;28;20053;-69
2022/01/06 06:02:45;;;;;;;2.42;1.00;;;;;;;;;;5019318;28;20049;-69
2022/01/06 06:05:11;;;;;;;2.08;0.98;;;;;;;;;;5008201;28;20072;-67
2022/01/06 06:07:38;;;;;;;1.00;0.75;;;;;;;;;;5040704;28;20525;-69
2022/01/06 06:10:04;;;;;;;0.82;0.80;;;;;;;;;;5042096;28;20124;-69
2022/01/06 06:12:30;;;;;;;2.38;0.93;;;;;;;;;;5024084;28;20056;-68
2022/01/06 06:14:56;;;;;;;1.35;0.90;;;;;;;;;;5041247;28;20502;-68
2022/01/06 06:17:22;;;;;;;3.70;0.90;;;;;;;;;;5025908;28;20605;-68
2022/01/06 06:19:49;;;;;;;1.95;0.90;;;;;;;;;;5023559;28;20128;-69
2022/01/06 06:22:15;;;;;;;3.17;1.13;;;;;;;;;;5026546;28;20057;-71
2022/01/06 06:24:44;;;;;;;2.58;0.90;;;;;;;;;;5026216;28;20128;-68
2022/01/06 06:27:11;;;;;;;2.80;0.90;;;;;;;;;;5024485;28;20049;-69
2022/01/06 06:29:37;;;;;;;1.73;1.00;;;;;;;;;;5023279;28;20048;-68
2022/01/06 06:32:04;;;;;;;1.27;0.90;;;;;;;;;;5023263;28;20090;-68
2022/01/06 06:34:31;;;;;;;2.10;0.98;;;;;;;;;;5041165;28;20056;-69
2022/01/06 06:36:57;;;;;;;2.08;0.90;;;;;;;;;;5022953;28;20084;-68
2022/01/06 06:39:23;;;;;;;10.70;1.27;;;;;;;;;;5040169;28;20041;-70
2022/01/06 06:41:51;;;;;;;2.95;1.00;;;;;;;;;;5038539;28;20050;-69
2022/01/06 06:44:17;;;;;;;1.52;1.20;;;;;;;;;;5041589;28;20069;-69
2022/01/06 06:46:44;;;;;;;3.85;1.00;;;;;;;;;;5006736;28;20057;-67
2022/01/06 06:49:10;;;;;;;1.92;1.00;;;;;;;;;;5040736;28;20057;-69
2022/01/06 06:51:37;;;;;;;1.60;1.20;;;;;;;;;;5040886;28;20051;-68
2022/01/06 06:54:03;;;;;;;2.05;0.90;;;;;;;;;;5007441;28;20095;-67
2022/01/06 06:56:29;;;;;;;1.90;1.10;;;;;;;;;;5007777;28;20053;-68
2022/01/06 06:58:55;;;;;;;1.77;1.00;;;;;;;;;;5040870;28;20433;-68
2022/01/06 07:01:21;;;;;;;4.53;1.30;;;;;;;;;;5020983;28;20069;-69
2022/01/06 07:03:48;;;;;;;2.70;1.30;;;;;;;;;;5041277;28;20057;-69
2022/01/06 07:06:14;;;;;;;1.92;1.20;;;;;;;;;;5040131;28;20084;-67
2022/01/06 07:08:41;;;;;;;3.15;1.27;;;;;;;;;;5037211;28;20397;-69
2022/01/06 07:11:07;;;;;;;1.80;1.30;;;;;;;;;;5022492;28;20044;-69
2022/01/06 07:13:33;;;;;;;1.20;1.08;;;;;;;;;;5003687;28;20045;-70
2022/01/06 07:15:59;;;;;;;5.28;1.20;;;;;;;;;;5041168;28;20045;-68
2022/01/06 07:18:26;;;;;;;4.93;1.20;;;;;;;;;;5024068;28;20102;-69
2022/01/06 07:20:52;;;;;;;2.15;1.17;;;;;;;;;;5020920;28;20142;-69
2022/01/06 07:23:18;;;;;;;5.18;1.10;;;;;;;;;;5022500;28;20052;-68
2022/01/06 07:25:44;;;;;;;2.53;1.13;;;;;;;;;;5022732;28;20110;-68
2022/01/06 07:28:10;;;;;;;4.05;1.35;;;;;;;;;;5040246;28;20053;-68
2022/01/06 07:30:37;;;;;;;1.50;1.08;;;;;;;;;;5039617;28;20090;-69
2022/01/06 07:33:03;;;;;;;1.23;1.10;;;;;;;;;;5040862;28;20055;-68
2022/01/06 07:35:30;;;;;;;1.65;1.25;;;;;;;;;;5007068;28;20377;-69
2022/01/06 07:37:56;;;;;;;2.08;1.10;;;;;;;;;;5022973;28;20080;-71
2022/01/06 07:40:23;;;;;;;2.40;1.30;;;;;;;;;;5022516;28;20048;-70
2022/01/06 07:42:51;;;;;;;2.05;1.08;;;;;;;;;;5041200;28;20523;-69
2022/01/06 07:45:18;;;;;;;2.17;1.40;;;;;;;;;;5039683;28;20136;-69
2022/01/06 07:47:55;;;;;;;3.20;1.50;;;;;;;;;;5039085;28;20136;-76
2022/01/06 07:50:25;;;;;;;4.38;1.30;;;;;;;;;;5041982;28;20056;-73
2022/01/06 07:52:52;;;;;;;5.18;1.20;;;;;;;;;;5023568;28;20132;-73
2022/01/06 07:55:19;;;;;;;6.05;1.30;;;;;;;;;;5043786;28;20067;-72
2022/01/06 07:57:46;;;;;;;1.92;1.00;;;;;;;;;;5044368;28;20053;-71
2022/01/06 08:00:13;;;;;;;2.40;1.00;;;;;;;;;;5044740;28;20088;-78
2022/01/06 08:02:40;;;;;;;1.73;1.10;;;;;;;;;;5045012;28;20518;-75
2022/01/06 08:05:11;;;;;;;4.13;1.33;;;;;;;;;;5047013;28;20048;-73
2022/01/06 08:07:37;;;;;;;1.60;1.00;;;;;;;;;;5022764;28;20041;-73
2022/01/06 08:10:05;;;;;;;2.15;1.30;;;;;;;;;;5040432;28;20041;-73
2022/01/06 08:12:31;;;;;;;1.63;1.10;;;;;;;;;;5023600;28;20132;-72
2022/01/06 08:14:57;;;;;;;2.13;1.00;;;;;;;;;;5019625;28;20056;-73
2022/01/06 08:17:24;;;;;;;3.25;1.30;;;;;;;;;;5038870;28;20122;-74
2022/01/06 08:19:52;;;;;;;1.83;1.30;;;;;;;;;;5021971;28;20123;-72
2022/01/06 08:22:19;;;;;;;4.47;1.02;;;;;;;;;;5038603;28;20597;-72
2022/01/06 08:24:45;;;;;;;2.45;1.35;;;;;;;;;;5026390;28;20049;-75
2022/01/06 08:27:12;;;;;;;1.73;1.05;;;;;;;;;;5027258;28;20057;-75
2022/01/06 08:29:38;;;;;;;2.67;1.27;;;;;;;;;;5022956;28;20505;-74
2022/01/06 08:32:06;;;;;;;4.20;1.50;;;;;;;;;;5043392;28;20041;-75
2022/01/06 08:34:33;;;;;;;4.38;1.70;;;;;;;;;;5026504;28;20510;-74
2022/01/06 08:37:00;;;;;;;1.75;1.33;;;;;;;;;;5047375;28;20280;-75
2022/01/06 08:39:26;;;;;;;14.02;2.05;;;;;;;;;;5045972;28;20048;-72
2022/01/06 08:41:53;;;;;;;1.77;1.30;;;;;;;;;;5046650;28;20096;-75
2022/01/06 08:44:21;;;;;;;2.42;1.55;;;;;;;;;;5030990;28;20053;-73
2022/01/06 08:46:48;;;;;;;2.30;1.50;;;;;;;;;;5034797;28;20056;-72
2022/01/06 08:49:15;;;;;;;3.00;1.48;;;;;;;;;;5055795;28;20534;-69
2022/01/06 08:51:42;;;;;;;4.60;1.60;;;;;;;;;;5047503;28;20060;-67
2022/01/06 08:54:08;;;;;;;6.32;2.10;;;;;;;;;;5041932;28;21189;-74
2022/01/06 08:56:35;;;;;;;5.43;2.00;;;;;;;;;;5029187;28;20045;-73
2022/01/06 08:59:02;;;;;;;4.25;2.03;;;;;;;;;;5054279;28;20041;-65
2022/01/06 09:01:28;;;;;;;2.75;1.58;;;;;;;;;;5028769;28;20075;-75
2022/01/06 09:03:54;;;;;;;4.32;1.80;;;;;;;;;;5027532;28;20526;-71
2022/01/06 09:06:20;;;;;;;3.58;1.60;;;;;;;;;;5047573;28;20048;-69
2022/01/06 09:08:47;;;;;;;2.38;1.52;;;;;;;;;;5027980;28;20064;-70
2022/01/06 09:11:13;;;;;;;6.75;1.83;;;;;;;;;;5033254;28;20525;-64
2022/01/06 09:13:39;;;;;;;2.47;1.42;;;;;;;;;;5043988;28;20144;-72
2022/01/06 09:16:08;;;;;;;3.05;1.80;;;;;;;;;;5027554;28;20052;-66
2022/01/06 09:18:36;;;;;;;2.80;1.60;;;;;;;;;;5043430;28;20256;-67
2022/01/06 09:21:04;;;;;;;4.25;1.45;;;;;;;;;;5025933;28;20049;-73
2022/01/06 09:23:30;;;;;;;2.40;1.55;;;;;;;;;;5029139;28;20072;-68
2022/01/06 09:25:56;;;;;;;3.85;2.20;;;;;;;;;;5046416;28;20044;-71
2022/01/06 09:28:22;;;;;;;4.03;2.03;;;;;;;;;;5030764;28;20453;-71
2022/01/06 09:30:50;;;;;;;5.57;1.80;;;;;;;;;;5014638;28;20090;-67
2022/01/06 09:33:18;;;;;;;4.63;1.63;;;;;;;;;;5050398;28;20052;-68
2022/01/06 09:35:45;;;;;;;5.72;1.70;;;;;;;;;;5028696;28;20041;-68
2022/01/06 09:38:11;;;;;;;4.22;1.80;;;;;;;;;;5043395;28;20044;-71
2022/01/06 09:40:40;;;;;;;3.28;1.63;;;;;;;;;;5041428;28;20454;-69
2022/01/06 09:43:06;;;;;;;2.63;1.60;;;;;;;;;;5027700;28;20458;-70
2022/01/06 09:45:34;;;;;;;3.40;1.48;;;;;;;;;;5047100;28;20166;-71
2022/01/06 09:48:01;;;;;;;5.07;1.60;;;;;;;;;;5026880;28;20060;-70
2022/01/06 09:50:27;;;;;;;2.92;1.30;;;;;;;;;;5027689;28;20502;-68
2022/01/06 09:52:53;;;;;;;3.65;1.40;;;;;;;;;;5026563;28;20470;-70
2022/01/06 09:55:21;;;;;;;6.88;1.50;;;;;;;;;;5025645;28;20059;-70
2022/01/06 09:57:55;;;;;;;3.28;1.48;;;;;;;;;;5042609;28;20528;-67
2022/01/06 10:00:22;;;;;;;3.42;1.65;;;;;;;;;;5043267;28;20138;-67
2022/01/06 10:02:57;;;;;;;1.95;1.15;;;;;;;;;;5008643;28;20061;-75
2022/01/06 10:05:25;;;;;;;6.43;1.33;;;;;;;;;;5043754;28;20056;-70
2022/01/06 10:07:55;;;;;;;1.95;1.20;;;;;;;;;;5024368;28;20045;-71
2022/01/06 10:10:25;;;;;;;6.82;2.85;;;;;;;;;;5027276;28;20060;-68
2022/01/06 10:12:57;;;;;;;3.95;1.70;;;;;;;;;;5045616;28;20287;-68
2022/01/06 10:15:26;;;;;;;1.55;0.90;;;;;;;;;;5024310;28;20053;-76
2022/01/06 10:17:52;;;;;;;4.88;1.63;;;;;;;;;;5044541;28;21271;-69
2022/01/06 10:20:21;;;;;;;2.83;1.20;;;;;;;;;;5027809;28;20052;-67
2022/01/06 10:22:53;;;;;;;3.30;1.30;;;;;;;;;;5027503;28;20052;-68
2022/01/06 10:25:21;;;;;;;6.13;1.50;;;;;;;;;;5009371;28;20053;-73
2022/01/06 10:27:49;;;;;;;3.95;1.27;;;;;;;;;;5043235;28;20920;-71
2022/01/06 10:30:16;;;;;;;2.22;1.02;;;;;;;;;;5045396;28;20118;-69
2022/01/06 10:32:43;;;;;;;2.33;1.10;;;;;;;;;;5041604;28;20053;-70
2022/01/06 10:35:11;;;;;;;2.35;1.20;;;;;;;;;;5038153;28;20597;-70
2022/01/06 10:37:48;;;;;;;3.22;1.00;;;;;;;;;;5041932;28;20146;-70
2022/01/06 10:40:22;;;;;;;2.17;1.10;;;;;;;;;;5023107;28;20433;-71
2022/01/06 10:42:54;;;;;;;2.03;1.15;;;;;;;;;;5024233;28;20048;-69
2022/01/06 10:45:25;;;;;;;2.50;1.30;;;;;;;;;;5046070;28;20541;-74
2022/01/06 10:47:56;;;;;;;1.73;1.20;;;;;;;;;;5011381;28;20426;-67
2022/01/06 10:50:36;;;;;;;2.30;1.10;;;;;;;;;;5047047;28;20048;-72
2022/01/06 10:53:10;;;;;;;4.20;1.27;;;;;;;;;;5044524;28;20105;-72
2022/01/06 10:55:42;;;;;;;1.85;0.95;;;;;;;;;;5042578;28;20041;-69
2022/01/06 10:58:11;;;;;;;2.13;0.80;;;;;;;;;;5021591;28;20513;-70
2022/01/06 11:00:40;;;;;;;1.52;1.00;;;;;;;;;;5037495;28;20048;-73
2022/01/06 11:03:17;;;;;;;1.75;1.13;;;;;;;;;;5036961;28;20061;-72
2022/01/06 11:05:46;;;;;;;5.57;1.42;;;;;;;;;;5036706;28;20048;-69
2022/01/06 11:08:16;;;;;;;3.08;1.15;;;;;;;;;;5040143;28;20131;-74
2022/01/06 11:10:48;;;;;;;4.07;1.42;;;;;;;;;;5007327;28;20051;-68
2022/01/06 11:13:16;;;;;;;2.60;1.23;;;;;;;;;;5041270;28;20441;-70
2022/01/06 11:15:42;;;;;;;3.03;1.20;;;;;;;;;;5037063;28;20045;-70
2022/01/06 11:18:08;;;;;;;7.15;1.63;;;;;;;;;;5015295;28;20041;-71
2022/01/06 11:20:34;;;;;;;2.00;1.30;;;;;;;;;;5021860;28;20452;-74
2022/01/06 11:23:01;;;;;;;2.38;1.20;;;;;;;;;;5043235;28;20041;-72
2022/01/06 11:25:36;;;;;;;1.65;0.80;;;;;;;;;;5043463;28;20122;-73
2022/01/06 11:28:07;;;;;;;2.00;0.90;;;;;;;;;;5009112;28;20056;-70
2022/01/06 11:30:51;;;;;;;1.50;0.93;;;;;;;;;;5023490;28;20078;-72
2022/01/06 11:33:18;;;;;;;2.75;1.17;;;;;;;;;;5040095;28;20312;-72
2022/01/06 11:35:49;;;;;;;4.05;1.80;;;;;;;;;;5039473;28;20268;-72
2022/01/06 11:38:19;;;;;;;4.18;1.20;;;;;;;;;;5040930;28;20049;-70
2022/01/06 11:40:50;;;;;;;3.35;0.95;;;;;;;;;;5038266;28;20060;-68
2022/01/06 11:43:18;;;;;;;3.88;1.15;;;;;;;;;;5036688;28;20075;-68
2022/01/06 11:45:44;;;;;;;5.85;2.35;;;;;;;;;;5003744;28;20049;-73
2022/01/06 11:48:16;;;;;;;1.42;1.10;;;;;;;;;;5023250;28;20041;-72
2022/01/06 11:50:48;;;;;;;2.78;1.38;;;;;;;;;;5022749;28;20053;-70
2022/01/06 11:53:16;;;;;;;6.75;1.42;;;;;;;;;;5007880;28;20057;-73
2022/01/06 11:55:45;;;;;;;2.85;1.10;;;;;;;;;;5025130;28;20045;-72
2022/01/06 11:58:13;;;;;;;2.55;1.13;;;;;;;;;;5036270;28;20132;-73
2022/01/06 12:00:42;;;;;;;0.85;0.73;;;;;;;;;;5039745;28;20053;-75
2022/01/06 12:03:11;;;;;;;4.32;2.05;;;;;;;;;;5039299;28;20107;-71
2022/01/06 12:05:52;;;;;;;2.95;1.25;;;;;;;;;;5009139;28;20091;-73
2022/01/06 12:08:21;;;;;;;1.80;0.90;;;;;;;;;;5044809;28;20665;-69
2022/01/06 12:10:48;;;;;;;4.13;1.80;;;;;;;;;;5043867;28;20045;-71
2022/01/06 12:13:15;;;;;;;2.47;1.15;;;;;;;;;;5042604;28;20076;-69
2022/01/06 12:15:53;;;;;;;2.60;1.17;;;;;;;;;;5040531;28;20516;-71
2022/01/06 12:18:24;;;;;;;2.83;1.00;;;;;;;;;;5025171;28;20052;-76
2022/01/06 12:20:52;;;;;;;1.85;0.90;;;;;;;;;;5041820;28;20048;-71
2022/01/06 12:23:19;;;;;;;1.90;1.00;;;;;;;;;;5040728;28;20041;-72
2022/01/06 12:26:00;;;;;;;3.17;1.00;;;;;;;;;;5025389;28;20071;-70
2022/01/06 12:28:29;;;;;;;1.67;1.00;;;;;;;;;;5041944;28;20079;-74
2022/01/06 12:31:04;;;;;;;1.75;1.00;;;;;;;;;;5023348;28;20052;-73
2022/01/06 12:33:32;;;;;;;2.97;0.98;;;;;;;;;;5040727;28;20071;-73
2022/01/06 12:35:58;;;;;;;3.58;1.20;;;;;;;;;;5022058;28;20522;-72
2022/01/06 12:38:31;;;;;;;2.47;0.90;;;;;;;;;;5039512;28;20231;-73
2022/01/06 12:40:58;;;;;;;1.92;1.15;;;;;;;;;;5047209;28;20056;-73
2022/01/06 12:43:27;;;;;;;1.63;0.93;;;;;;;;;;5046483;28;20049;-71
2022/01/06 12:46:17;;;;;;;1.23;0.73;;;;;;;;;;5043781;28;20497;-67
2022/01/06 12:48:46;;;;;;;1.13;0.70;;;;;;;;;;5044272;28;20128;-71
2022/01/06 12:51:17;;;;;;;1.83;0.70;;;;;;;;;;5028663;28;20107;-71
2022/01/06 12:53:46;;;;;;;2.35;1.00;;;;;;;;;;5046921;28;20044;-70
2022/01/06 12:56:30;;;;;;;1.80;0.90;;;;;;;;;;5024577;28;20396;-70
2022/01/06 12:59:09;;;;;;;1.20;0.80;;;;;;;;;;5041926;28;20067;-76
2022/01/06 13:01:37;;;;;;;3.22;1.42;;;;;;;;;;5023457;28;20148;-74
2022/01/06 13:04:06;;;;;;;1.65;1.02;;;;;;;;;;5025878;28;20537;-71
2022/01/06 13:06:34;;;;;;;1.92;1.20;;;;;;;;;;5026358;28;20083;-73
2022/01/06 13:09:12;;;;;;;5.88;1.60;;;;;;;;;;5025123;28;20350;-70
2022/01/06 13:11:52;;;;;;;2.13;1.00;;;;;;;;;;5044294;28;20045;-72
2022/01/06 13:14:31;;;;;;;1.25;0.80;;;;;;;;;;5042489;28;20555;-71
2022/01/06 13:17:05;;;;;;;2.97;0.98;;;;;;;;;;5006235;28;20057;-70
2022/01/06 13:19:34;;;;;;;2.28;1.10;;;;;;;;;;5040928;28;20047;-71
2022/01/06 13:22:04;;;;;;;6.05;1.10;;;;;;;;;;5024861;28;20343;-71
2022/01/06 13:24:35;;;;;;;2.80;1.40;;;;;;;;;;5028132;28;20420;-79
2022/01/06 13:27:08;;;;;;;2.72;1.58;;;;;;;;;;5011707;28;20415;-71
2022/01/06 13:29:52;;;;;;;2.70;1.30;;;;;;;;;;5027111;28;20391;-73
2022/01/06 13:32:25;;;;;;;5.30;1.30;;;;;;;;;;5046598;28;20135;-72
2022/01/06 13:35:07;;;;;;;2.55;1.00;;;;;;;;;;5030354;28;20057;-68
2022/01/06 13:37:37;;;;;;;3.28;1.30;;;;;;;;;;5043072;28;20060;-71
2022/01/06 13:40:05;;;;;;;1.25;1.08;;;;;;;;;;5010891;28;20254;-70
2022/01/06 13:42:37;;;;;;;2.35;1.13;;;;;;;;;;5043801;28;20059;-69
2022/01/06 13:47:50;;;;;;;2.58;1.13;;;;;;;;;;5042564;28;20045;-71
2022/01/06 13:53:36;;;;;;;3.17;1.60;;;;;;;;;;5031845;28;20510;-77
2022/01/06 13:56:06;;;;;;;2.97;1.30;;;;;;;;;;5049176;28;20057;-70
2022/01/06 13:58:38;;;;;;;3.38;1.27;;;;;;;;;;5027419;28;20125;-75
2022/01/06 14:01:06;;;;;;;2.60;1.63;;;;;;;;;;5047662;28;20048;-74
2022/01/06 14:03:34;;;;;;;3.28;1.48;;;;;;;;;;5014337;28;20052;-73
2022/01/06 14:06:02;;;;;;;3.30;1.00;;;;;;;;;;5032691;28;20045;-75
2022/01/06 14:08:29;;;;;;;1.25;0.82;;;;;;;;;;5031882;28;20056;-72
2022/01/06 14:10:56;;;;;;;2.58;1.17;;;;;;;;;;5050849;28;20056;-77
2022/01/06 14:13:22;;;;;;;1.10;0.77;;;;;;;;;;5033341;28;20095;-71
2022/01/06 14:15:49;;;;;;;2.40;1.08;;;;;;;;;;5028249;28;20408;-71
2022/01/06 14:18:15;;;;;;;2.33;1.23;;;;;;;;;;5024536;28;20406;-73
2022/01/06 14:20:42;;;;;;;1.42;0.90;;;;;;;;;;5028632;28;20141;-70
2022/01/06 14:23:12;;;;;;;4.93;1.40;;;;;;;;;;5049176;28;20048;-75
2022/01/06 14:25:38;;;;;;;2.30;1.00;;;;;;;;;;5026449;28;20061;-72
2022/01/06 14:28:06;;;;;;;2.33;1.13;;;;;;;;;;5044623;28;20057;-72
2022/01/06 14:30:32;;;;;;;7.05;2.47;;;;;;;;;;5044718;28;20118;-72
2022/01/06 14:32:59;;;;;;;5.47;2.70;;;;;;;;;;5025168;28;20140;-71
2022/01/06 14:35:26;;;;;;;3.20;1.70;;;;;;;;;;5024948;28;20045;-71
2022/01/06 14:37:53;;;;;;;3.55;1.70;;;;;;;;;;5025223;28;20078;-73
2022/01/06 14:40:21;;;;;;;3.63;1.88;;;;;;;;;;5044164;28;20053;-71
2022/01/06 14:42:47;;;;;;;4.75;1.52;;;;;;;;;;5043291;28;20086;-76
2022/01/06 14:45:14;;;;;;;13.80;1.65;;;;;;;;;;5044192;28;20123;-71
2022/01/06 14:47:41;;;;;;;4.15;1.70;;;;;;;;;;5040944;28;20431;-70
2022/01/06 14:50:08;;;;;;;6.78;1.75;;;;;;;;;;5026477;28;20135;-75
2022/01/06 14:52:34;;;;;;;4.20;1.70;;;;;;;;;;5026717;28;20103;-74
2022/01/06 14:55:01;;;;;;;3.70;1.63;;;;;;;;;;5023831;28;20140;-75
2022/01/06 14:57:27;;;;;;;7.05;2.20;;;;;;;;;;5043131;28;20053;-73
2022/01/06 14:59:53;;;;;;;6.00;2.40;;;;;;;;;;5042530;28;20044;-72
2022/01/06 15:02:20;;;;;;;5.13;1.67;;;;;;;;;;5025732;28;20065;-69
2022/01/06 15:04:46;;;;;;;5.35;1.90;;;;;;;;;;5025612;28;20045;-77
2022/01/06 15:07:12;;;;;;;3.33;1.52;;;;;;;;;;5046069;28;20056;-72